createdAt,value
2019-03-22T00:04:25.175Z,73.33
2019-03-22T00:09:28.687Z,60.87
2019-03-22T00:14:32.220Z,66.23
2019-03-22T00:19:35.769Z,56.30
2019-03-22T00:24:39.323Z,50.23
2019-03-22T00:29:42.950Z,54.00
2019-03-22T00:34:46.463Z,47.00
2019-03-22T00:39:49.980Z,59.43
2019-03-22T00:44:53.496Z,44.50
2019-03-22T00:49:57.044Z,48.80
2019-03-22T00:55:00.605Z,42.00
2019-03-22T01:00:05.391Z,34.97
2019-03-22T01:05:09.364Z,40.70
2019-03-22T01:10:13.218Z,48.10
2019-03-22T01:15:17.348Z,55.60
2019-03-22T01:20:20.861Z,150.73
2019-03-22T01:25:24.394Z,101.10
2019-03-22T01:30:27.925Z,70.83
2019-03-22T01:35:31.459Z,89.97
2019-03-22T01:40:35.015Z,117.67
2019-03-22T01:45:38.570Z,96.60
2019-03-22T01:50:42.080Z,46.00
2019-03-22T01:55:45.606Z,71.87
2019-03-22T02:00:49.310Z,57.77
2019-03-22T02:05:52.825Z,48.73
2019-03-22T02:10:56.810Z,73.40
2019-03-22T02:16:00.326Z,48.43
2019-03-22T02:21:03.862Z,35.40
2019-03-22T02:26:07.393Z,44.87
2019-03-22T02:31:10.930Z,57.73
2019-03-22T02:36:14.466Z,51.50
2019-03-22T02:41:18.050Z,45.17
2019-03-22T02:46:21.678Z,60.07
2019-03-22T02:51:25.207Z,46.53
2019-03-22T02:56:28.714Z,51.90
2019-03-22T03:01:32.650Z,60.23
2019-03-22T03:06:36.154Z,42.57
2019-03-22T03:11:39.695Z,51.03
2019-03-22T03:16:43.209Z,43.93
2019-03-22T03:21:46.709Z,37.00
2019-03-22T03:26:50.240Z,35.77
2019-03-22T03:31:53.778Z,32.03
2019-03-22T03:36:57.520Z,48.10
2019-03-22T03:42:02.247Z,40.63
2019-03-22T03:47:05.745Z,53.20
2019-03-22T03:52:09.313Z,45.33
2019-03-22T03:57:13.402Z,31.03
2019-03-22T04:02:16.941Z,33.33
2019-03-22T04:07:20.706Z,33.80
2019-03-22T04:12:24.376Z,43.47
2019-03-22T04:17:27.996Z,29.20
2019-03-22T04:22:31.519Z,35.23
2019-03-22T04:27:35.072Z,63.30
2019-03-22T04:32:38.614Z,35.20
2019-03-22T04:37:42.200Z,49.07
2019-03-22T04:42:45.711Z,73.13
2019-03-22T04:47:55.726Z,43.23
2019-03-22T04:53:01.062Z,115.50
2019-03-22T04:58:06.374Z,67.80
2019-03-22T05:03:12.019Z,106.57
2019-03-22T05:08:17.852Z,139.13
2019-03-22T05:13:24.022Z,110.90
2019-03-22T05:18:31.590Z,97.90
2019-03-22T05:23:35.991Z,51.77
2019-03-22T05:28:39.623Z,133.97
2019-03-22T05:33:43.142Z,94.57
2019-03-22T05:38:46.682Z,56.83
2019-03-22T05:43:50.200Z,98.10
2019-03-22T05:48:53.705Z,70.70
2019-03-22T05:53:57.227Z,73.37
2019-03-22T05:59:00.899Z,112.17
2019-03-22T06:04:04.432Z,61.20
2019-03-22T06:09:08.879Z,48.80
2019-03-22T06:14:12.408Z,46.10
2019-03-22T06:19:15.920Z,76.53
2019-03-22T06:24:22.143Z,36.07
2019-03-22T06:29:25.133Z,35.90
2019-03-22T06:34:29.036Z,39.90
2019-03-22T06:39:32.639Z,31.07
2019-03-22T06:44:36.163Z,36.83
2019-03-22T06:49:39.676Z,32.40
2019-03-22T06:54:43.316Z,35.50
2019-03-22T06:59:46.895Z,34.03
2019-03-22T07:04:50.437Z,31.87
2019-03-22T07:09:53.954Z,39.60
2019-03-22T07:14:57.446Z,31.70
2019-03-22T07:20:00.961Z,27.60
2019-03-22T07:25:05.052Z,34.63
2019-03-22T07:30:18.704Z,41.43
2019-03-22T07:35:15.971Z,28.33
2019-03-22T07:40:19.488Z,32.03
2019-03-22T07:45:23.002Z,34.17
2019-03-22T07:50:26.516Z,33.43
2019-03-22T07:55:30.030Z,34.67
2019-03-22T08:00:33.569Z,43.47
2019-03-22T08:05:37.074Z,41.77
2019-03-22T08:10:40.582Z,42.20
2019-03-22T08:15:44.090Z,42.07
2019-03-22T08:20:47.804Z,48.10
2019-03-22T08:25:51.517Z,53.17
2019-03-22T08:30:55.298Z,57.23
2019-03-22T08:36:00.767Z,59.23
2019-03-22T08:41:07.267Z,55.27
2019-03-22T08:46:10.845Z,69.50
2019-03-22T08:51:14.382Z,64.20
2019-03-22T08:56:18.324Z,62.57
2019-03-22T09:22:32.576Z,74.80
2019-03-22T09:27:36.714Z,80.73
2019-03-22T09:32:40.429Z,75.00
2019-03-22T09:37:44.013Z,78.57
2019-03-22T09:42:48.132Z,73.40
2019-03-22T09:47:51.844Z,63.33
2019-03-22T09:52:55.444Z,76.00
2019-03-22T09:57:59.054Z,62.33
2019-03-22T10:03:03.423Z,57.30
2019-03-22T10:08:06.941Z,59.93
2019-03-22T10:13:10.444Z,66.13
2019-03-22T10:18:13.991Z,78.23
2019-03-22T10:23:17.575Z,63.63
2019-03-22T10:28:21.149Z,70.20
2019-03-22T10:33:24.725Z,69.43
2019-03-22T10:38:31.941Z,69.60
2019-03-22T10:43:33.804Z,62.17
2019-03-22T10:48:37.374Z,49.60
2019-03-22T10:53:41.025Z,57.23
2019-03-22T10:58:44.619Z,51.33
2019-03-22T11:03:48.202Z,48.83
2019-03-22T11:08:51.854Z,48.13
2019-03-22T11:13:55.359Z,48.37
2019-03-22T11:18:58.868Z,43.67
2019-03-22T11:24:02.382Z,48.90
2019-03-22T11:29:06.025Z,45.93
2019-03-22T11:34:09.541Z,41.10
2019-03-22T11:39:15.794Z,37.37
2019-03-22T11:44:18.472Z,38.43
2019-03-22T11:49:21.977Z,38.10
2019-03-22T11:54:25.477Z,33.43
2019-03-22T11:59:29.020Z,36.90
2019-03-22T12:04:32.514Z,33.27
2019-03-22T12:09:36.015Z,30.60
2019-03-22T12:14:39.915Z,38.50
2019-03-22T12:19:43.420Z,35.60
2019-03-22T12:24:46.932Z,35.47
2019-03-22T12:29:50.435Z,45.63
2019-03-22T12:34:53.952Z,37.90
2019-03-22T12:39:57.524Z,40.17
2019-03-22T12:45:01.057Z,26.77
2019-03-22T12:50:05.396Z,28.03
2019-03-22T12:55:09.276Z,34.83
2019-03-22T13:00:17.150Z,37.43
2019-03-22T13:05:21.700Z,32.63
2019-03-22T13:10:27.768Z,32.30
2019-03-22T13:15:31.355Z,44.17
2019-03-22T13:20:35.256Z,37.33
2019-03-22T13:25:38.778Z,38.23
2019-03-22T13:30:42.309Z,33.40
2019-03-22T13:35:45.976Z,33.97
2019-03-22T13:40:49.576Z,17.87
2019-03-22T13:45:53.198Z,17.97
2019-03-22T13:50:56.723Z,23.53
2019-03-22T13:56:00.319Z,18.73
2019-03-22T14:01:25.740Z,17.37
2019-03-22T14:06:29.343Z,26.93
2019-03-22T14:11:32.931Z,15.57
2019-03-22T14:16:36.828Z,15.73
2019-03-22T14:21:40.407Z,12.97
2019-03-22T14:26:44.030Z,16.70
2019-03-22T14:31:47.554Z,13.80
2019-03-22T14:36:51.094Z,10.47
2019-03-22T14:41:54.624Z,10.47
2019-03-22T14:46:58.136Z,15.27
2019-03-22T14:52:01.660Z,13.47
2019-03-22T14:57:05.252Z,11.70
2019-03-22T15:02:52.861Z,10.10
2019-03-22T15:07:56.499Z,7.67
2019-03-22T15:13:00.432Z,8.07
2019-03-22T15:18:21.619Z,6.67
2019-03-22T15:23:43.439Z,7.57
2019-03-22T15:29:21.541Z,11.90
2019-03-22T15:34:43.220Z,12.67
2019-03-22T15:39:59.943Z,12.63
2019-03-22T15:45:05.643Z,22.53
2019-03-22T15:50:12.074Z,19.27
2019-03-22T15:55:15.599Z,14.53
2019-03-22T16:00:19.206Z,24.53
2019-03-22T16:05:22.819Z,18.03
2019-03-22T16:10:26.333Z,11.90
2019-03-22T16:15:29.883Z,10.03
2019-03-22T16:20:33.434Z,11.63
2019-03-22T16:25:36.954Z,8.60
2019-03-22T16:30:40.498Z,9.70
2019-03-22T16:35:43.995Z,15.50
2019-03-22T16:40:47.512Z,25.93
2019-03-22T16:45:51.061Z,23.93
2019-03-22T16:50:54.596Z,26.13
2019-03-22T16:55:58.180Z,31.03
2019-03-22T17:01:01.783Z,26.20
2019-03-22T17:06:05.300Z,25.47
2019-03-22T17:11:09.694Z,25.33
2019-03-22T17:16:14.066Z,25.10
2019-03-22T17:21:18.265Z,31.27
2019-03-22T17:26:22.529Z,31.57
2019-03-22T17:31:26.854Z,25.70
2019-03-22T17:36:30.492Z,31.50
2019-03-22T17:41:34.009Z,29.60
2019-03-22T17:46:37.543Z,29.83
2019-03-22T17:51:41.042Z,30.30
2019-03-22T17:56:44.572Z,35.00
2019-03-22T18:01:48.183Z,35.80
2019-03-22T18:06:51.749Z,36.50
2019-03-22T18:11:55.362Z,38.30
2019-03-22T18:16:59.020Z,38.53
2019-03-22T18:22:02.913Z,39.70
2019-03-22T18:27:06.498Z,42.03
2019-03-22T18:32:14.334Z,42.93
2019-03-22T18:37:18.357Z,49.77
2019-03-22T18:42:21.886Z,47.43
2019-03-22T18:47:25.927Z,57.73
2019-03-22T18:52:29.499Z,48.63
2019-03-22T18:57:33.062Z,53.10
2019-03-22T19:02:42.436Z,46.77
2019-03-22T19:08:17.436Z,41.57
2019-03-22T19:13:51.848Z,42.33
2019-03-22T19:19:35.203Z,44.77
2019-03-22T19:25:14.574Z,64.87
2019-03-22T19:31:33.518Z,56.80
2019-03-22T19:37:17.549Z,55.00
2019-03-22T19:56:27.570Z,51.30
2019-03-22T20:02:54.467Z,51.47
2019-03-22T20:08:26.674Z,61.40
2019-03-22T20:13:58.564Z,58.93
2019-03-22T20:19:07.845Z,55.13
2019-03-22T20:24:35.408Z,53.03
2019-03-22T20:30:28.095Z,49.93
2019-03-22T20:35:58.110Z,48.40
2019-03-22T20:46:32.078Z,62.60
2019-03-22T20:51:35.968Z,57.73
2019-03-22T20:56:39.840Z,61.70
2019-03-22T21:01:43.697Z,70.77
2019-03-22T21:07:15.061Z,60.30
2019-03-22T21:12:57.070Z,55.67
2019-03-22T21:18:00.779Z,48.77
2019-03-22T21:23:04.374Z,48.73
2019-03-22T21:28:07.935Z,54.67
2019-03-22T21:33:14.173Z,49.63
2019-03-22T21:38:17.700Z,57.40
2019-03-22T21:43:30.233Z,57.47
2019-03-22T21:48:35.949Z,54.30
2019-03-22T21:53:39.501Z,45.63
2019-03-22T21:58:43.063Z,47.73
2019-03-22T22:03:46.602Z,50.40
2019-03-22T22:08:50.151Z,59.40
2019-03-22T22:13:54.315Z,56.00
2019-03-22T22:19:03.672Z,52.10
2019-03-22T22:24:07.891Z,55.60
2019-03-22T22:29:11.397Z,42.23
2019-03-22T22:34:21.986Z,53.63
2019-03-22T22:39:56.878Z,50.23
2019-03-22T23:19:21.901Z,24.13
2019-03-22T23:24:25.611Z,20.13
2019-03-22T23:29:29.139Z,19.20
2019-03-22T23:34:35.152Z,21.87
2019-03-22T23:39:39.587Z,19.43
2019-03-22T23:44:43.137Z,16.73
2019-03-22T23:49:46.696Z,19.10
2019-03-22T23:54:50.239Z,18.30
2019-03-22T23:59:54.086Z,17.20
